sensor_id;sensor_type;location;lat;lon;timestamp;P1;durP1;ratioP1;P2;durP2;ratioP2
71080;SDS011;58740;50.672;18.690;2023-01-25T00:01:43;40.20;;;17.30;;
71080;SDS011;58740;50.672;18.690;2023-01-25T00:04:11;42.30;;;17.20;;
71080;SDS011;58740;50.672;18.690;2023-01-25T00:06:39;33.50;;;15.80;;
71080;SDS011;58740;50.672;18.690;2023-01-25T00:09:09;39.10;;;15.60;;
71080;SDS011;58740;50.672;18.690;2023-01-25T00:11:37;36.90;;;15.90;;
71080;SDS011;58740;50.672;18.690;2023-01-25T00:14:05;32.00;;;14.60;;
71080;SDS011;58740;50.672;18.690;2023-01-25T00:16:34;33.60;;;14.90;;
71080;SDS011;58740;50.672;18.690;2023-01-25T00:19:03;32.00;;;12.60;;
71080;SDS011;58740;50.672;18.690;2023-01-25T00:21:35;30.30;;;13.50;;
71080;SDS011;58740;50.672;18.690;2023-01-25T00:24:04;27.30;;;12.30;;
71080;SDS011;58740;50.672;18.690;2023-01-25T00:26:34;22.80;;;10.40;;
71080;SDS011;58740;50.672;18.690;2023-01-25T00:29:02;29.60;;;12.60;;
71080;SDS011;58740;50.672;18.690;2023-01-25T00:34:37;29.50;;;11.30;;
71080;SDS011;58740;50.672;18.690;2023-01-25T00:37:29;28.10;;;11.40;;
71080;SDS011;58740;50.672;18.690;2023-01-25T00:40:05;25.70;;;11.60;;
71080;SDS011;58740;50.672;18.690;2023-01-25T00:42:33;31.40;;;12.30;;
71080;SDS011;58740;50.672;18.690;2023-01-25T00:45:00;36.40;;;13.30;;
71080;SDS011;58740;50.672;18.690;2023-01-25T00:47:28;29.20;;;12.80;;
71080;SDS011;58740;50.672;18.690;2023-01-25T00:49:56;31.50;;;12.90;;
71080;SDS011;58740;50.672;18.690;2023-01-25T00:52:24;35.00;;;14.30;;
71080;SDS011;58740;50.672;18.690;2023-01-25T00:54:52;28.90;;;11.90;;
71080;SDS011;58740;50.672;18.690;2023-01-25T00:57:19;30.10;;;11.80;;
71080;SDS011;58740;50.672;18.690;2023-01-25T00:59:47;22.60;;;10.50;;
71080;SDS011;58740;50.672;18.690;2023-01-25T01:02:15;25.10;;;10.90;;
71080;SDS011;58740;50.672;18.690;2023-01-25T01:04:43;23.80;;;9.90;;
71080;SDS011;58740;50.672;18.690;2023-01-25T01:07:12;30.60;;;12.50;;
71080;SDS011;58740;50.672;18.690;2023-01-25T01:09:41;33.60;;;12.10;;
71080;SDS011;58740;50.672;18.690;2023-01-25T01:12:09;22.50;;;11.30;;
71080;SDS011;58740;50.672;18.690;2023-01-25T01:14:37;25.50;;;11.10;;
71080;SDS011;58740;50.672;18.690;2023-01-25T01:17:05;27.10;;;12.00;;
71080;SDS011;58740;50.672;18.690;2023-01-25T01:19:33;31.70;;;13.60;;
71080;SDS011;58740;50.672;18.690;2023-01-25T01:22:01;28.70;;;11.90;;
71080;SDS011;58740;50.672;18.690;2023-01-25T01:24:28;29.30;;;11.50;;
71080;SDS011;58740;50.672;18.690;2023-01-25T01:26:56;28.10;;;12.10;;
71080;SDS011;58740;50.672;18.690;2023-01-25T01:29:24;24.60;;;10.60;;
71080;SDS011;58740;50.672;18.690;2023-01-25T01:31:52;20.80;;;7.80;;
71080;SDS011;58740;50.672;18.690;2023-01-25T01:34:20;21.40;;;8.70;;
71080;SDS011;58740;50.672;18.690;2023-01-25T01:36:51;21.60;;;9.00;;
71080;SDS011;58740;50.672;18.690;2023-01-25T01:39:19;20.00;;;7.00;;
71080;SDS011;58740;50.672;18.690;2023-01-25T01:41:47;16.90;;;7.50;;
71080;SDS011;58740;50.672;18.690;2023-01-25T01:44:17;15.50;;;6.80;;
71080;SDS011;58740;50.672;18.690;2023-01-25T01:46:54;15.60;;;6.80;;
71080;SDS011;58740;50.672;18.690;2023-01-25T01:49:30;14.30;;;6.90;;
71080;SDS011;58740;50.672;18.690;2023-01-25T01:52:10;17.40;;;7.40;;
71080;SDS011;58740;50.672;18.690;2023-01-25T01:54:45;14.70;;;6.80;;
71080;SDS011;58740;50.672;18.690;2023-01-25T01:57:46;13.50;;;6.00;;
71080;SDS011;58740;50.672;18.690;2023-01-25T02:00:20;13.10;;;5.50;;
71080;SDS011;58740;50.672;18.690;2023-01-25T02:02:53;16.00;;;6.00;;
71080;SDS011;58740;50.672;18.690;2023-01-25T02:06:19;17.10;;;6.50;;
71080;SDS011;58740;50.672;18.690;2023-01-25T02:08:32;16.80;;;7.40;;
71080;SDS011;58740;50.672;18.690;2023-01-25T02:11:03;15.10;;;7.30;;
71080;SDS011;58740;50.672;18.690;2023-01-25T02:13:31;13.30;;;5.60;;
71080;SDS011;58740;50.672;18.690;2023-01-25T02:16:00;15.40;;;6.40;;
71080;SDS011;58740;50.672;18.690;2023-01-25T02:18:28;12.90;;;5.70;;
71080;SDS011;58740;50.672;18.690;2023-01-25T02:20:58;13.00;;;6.30;;
71080;SDS011;58740;50.672;18.690;2023-01-25T02:26:15;16.30;;;6.20;;
71080;SDS011;58740;50.672;18.690;2023-01-25T02:28:51;16.60;;;6.10;;
71080;SDS011;58740;50.672;18.690;2023-01-25T02:31:27;12.00;;;5.30;;
71080;SDS011;58740;50.672;18.690;2023-01-25T02:33:55;12.90;;;5.30;;
71080;SDS011;58740;50.672;18.690;2023-01-25T02:36:26;12.60;;;6.10;;
71080;SDS011;58740;50.672;18.690;2023-01-25T02:39:02;13.60;;;6.40;;
71080;SDS011;58740;50.672;18.690;2023-01-25T02:41:36;14.70;;;6.40;;
71080;SDS011;58740;50.672;18.690;2023-01-25T02:44:17;17.00;;;6.70;;
71080;SDS011;58740;50.672;18.690;2023-01-25T02:46:50;17.10;;;6.90;;
71080;SDS011;58740;50.672;18.690;2023-01-25T02:49:18;15.10;;;6.60;;
71080;SDS011;58740;50.672;18.690;2023-01-25T02:51:48;14.20;;;7.30;;
71080;SDS011;58740;50.672;18.690;2023-01-25T02:54:18;15.50;;;6.80;;
71080;SDS011;58740;50.672;18.690;2023-01-25T02:56:47;13.80;;;6.20;;
71080;SDS011;58740;50.672;18.690;2023-01-25T02:59:15;13.00;;;5.50;;
71080;SDS011;58740;50.672;18.690;2023-01-25T03:01:45;12.80;;;4.70;;
71080;SDS011;58740;50.672;18.690;2023-01-25T03:04:13;12.60;;;5.20;;
71080;SDS011;58740;50.672;18.690;2023-01-25T03:06:42;10.90;;;5.20;;
71080;SDS011;58740;50.672;18.690;2023-01-25T03:09:10;11.70;;;5.30;;
71080;SDS011;58740;50.672;18.690;2023-01-25T03:11:38;10.60;;;4.70;;
71080;SDS011;58740;50.672;18.690;2023-01-25T03:14:06;11.80;;;5.00;;
71080;SDS011;58740;50.672;18.690;2023-01-25T03:16:34;11.80;;;4.80;;
71080;SDS011;58740;50.672;18.690;2023-01-25T03:19:02;12.60;;;5.10;;
71080;SDS011;58740;50.672;18.690;2023-01-25T03:21:30;12.90;;;5.60;;
71080;SDS011;58740;50.672;18.690;2023-01-25T03:24:00;14.10;;;5.40;;
71080;SDS011;58740;50.672;18.690;2023-01-25T03:26:28;12.70;;;5.10;;
71080;SDS011;58740;50.672;18.690;2023-01-25T03:28:57;13.20;;;5.50;;
71080;SDS011;58740;50.672;18.690;2023-01-25T03:31:24;13.20;;;5.80;;
71080;SDS011;58740;50.672;18.690;2023-01-25T03:33:52;11.10;;;5.70;;
71080;SDS011;58740;50.672;18.690;2023-01-25T03:36:20;11.50;;;5.50;;
71080;SDS011;58740;50.672;18.690;2023-01-25T03:38:48;12.40;;;5.60;;
71080;SDS011;58740;50.672;18.690;2023-01-25T03:41:15;15.40;;;6.20;;
71080;SDS011;58740;50.672;18.690;2023-01-25T03:43:43;14.10;;;6.00;;
71080;SDS011;58740;50.672;18.690;2023-01-25T03:46:11;15.10;;;6.90;;
71080;SDS011;58740;50.672;18.690;2023-01-25T03:48:38;12.80;;;6.30;;
71080;SDS011;58740;50.672;18.690;2023-01-25T03:51:06;15.40;;;6.60;;
71080;SDS011;58740;50.672;18.690;2023-01-25T03:53:35;13.00;;;5.70;;
71080;SDS011;58740;50.672;18.690;2023-01-25T03:56:06;13.30;;;7.30;;
71080;SDS011;58740;50.672;18.690;2023-01-25T03:58:37;16.90;;;7.20;;
71080;SDS011;58740;50.672;18.690;2023-01-25T04:01:06;13.50;;;6.70;;
71080;SDS011;58740;50.672;18.690;2023-01-25T04:03:35;13.10;;;5.20;;
71080;SDS011;58740;50.672;18.690;2023-01-25T04:06:04;12.10;;;5.20;;
71080;SDS011;58740;50.672;18.690;2023-01-25T04:08:33;13.40;;;5.70;;
71080;SDS011;58740;50.672;18.690;2023-01-25T04:11:04;12.90;;;6.00;;
71080;SDS011;58740;50.672;18.690;2023-01-25T04:13:33;11.50;;;5.50;;
71080;SDS011;58740;50.672;18.690;2023-01-25T04:16:04;13.90;;;5.90;;
71080;SDS011;58740;50.672;18.690;2023-01-25T04:18:33;16.20;;;6.50;;
71080;SDS011;58740;50.672;18.690;2023-01-25T04:21:01;16.70;;;6.90;;
71080;SDS011;58740;50.672;18.690;2023-01-25T04:23:29;13.80;;;6.00;;
71080;SDS011;58740;50.672;18.690;2023-01-25T04:26:01;15.40;;;7.60;;
71080;SDS011;58740;50.672;18.690;2023-01-25T04:28:34;16.30;;;9.10;;
71080;SDS011;58740;50.672;18.690;2023-01-25T04:31:05;14.90;;;7.60;;
71080;SDS011;58740;50.672;18.690;2023-01-25T04:33:33;20.60;;;8.20;;
71080;SDS011;58740;50.672;18.690;2023-01-25T04:36:01;18.80;;;8.00;;
71080;SDS011;58740;50.672;18.690;2023-01-25T04:38:29;15.10;;;7.00;;
71080;SDS011;58740;50.672;18.690;2023-01-25T04:40:57;19.40;;;8.90;;
71080;SDS011;58740;50.672;18.690;2023-01-25T04:43:25;18.80;;;8.00;;
71080;SDS011;58740;50.672;18.690;2023-01-25T04:45:53;19.50;;;8.10;;
71080;SDS011;58740;50.672;18.690;2023-01-25T04:48:21;13.60;;;6.90;;
71080;SDS011;58740;50.672;18.690;2023-01-25T04:50:49;19.10;;;7.40;;
71080;SDS011;58740;50.672;18.690;2023-01-25T04:53:16;16.60;;;8.00;;
71080;SDS011;58740;50.672;18.690;2023-01-25T04:55:45;18.10;;;7.60;;
71080;SDS011;58740;50.672;18.690;2023-01-25T04:58:14;18.30;;;8.40;;
71080;SDS011;58740;50.672;18.690;2023-01-25T05:00:42;17.60;;;8.10;;
71080;SDS011;58740;50.672;18.690;2023-01-25T05:03:10;19.50;;;9.30;;
71080;SDS011;58740;50.672;18.690;2023-01-25T05:05:38;18.70;;;8.60;;
71080;SDS011;58740;50.672;18.690;2023-01-25T05:08:05;18.90;;;9.30;;
71080;SDS011;58740;50.672;18.690;2023-01-25T05:10:33;16.30;;;8.10;;
71080;SDS011;58740;50.672;18.690;2023-01-25T05:13:01;19.20;;;8.40;;
71080;SDS011;58740;50.672;18.690;2023-01-25T05:15:29;18.30;;;7.90;;
71080;SDS011;58740;50.672;18.690;2023-01-25T05:17:56;19.20;;;8.20;;
71080;SDS011;58740;50.672;18.690;2023-01-25T05:20:24;18.70;;;9.10;;
71080;SDS011;58740;50.672;18.690;2023-01-25T05:22:52;18.10;;;8.50;;
71080;SDS011;58740;50.672;18.690;2023-01-25T05:25:20;19.70;;;9.20;;
71080;SDS011;58740;50.672;18.690;2023-01-25T05:28:06;19.80;;;9.30;;
71080;SDS011;58740;50.672;18.690;2023-01-25T05:30:34;18.40;;;8.20;;
71080;SDS011;58740;50.672;18.690;2023-01-25T05:33:02;19.60;;;8.50;;
71080;SDS011;58740;50.672;18.690;2023-01-25T05:35:30;19.50;;;9.00;;
71080;SDS011;58740;50.672;18.690;2023-01-25T05:37:58;19.10;;;9.50;;
71080;SDS011;58740;50.672;18.690;2023-01-25T05:40:26;19.20;;;10.20;;
71080;SDS011;58740;50.672;18.690;2023-01-25T05:42:57;21.00;;;8.90;;
71080;SDS011;58740;50.672;18.690;2023-01-25T05:45:28;18.30;;;9.50;;
71080;SDS011;58740;50.672;18.690;2023-01-25T05:47:59;23.00;;;10.80;;
71080;SDS011;58740;50.672;18.690;2023-01-25T05:50:27;24.60;;;10.90;;
71080;SDS011;58740;50.672;18.690;2023-01-25T05:52:54;23.50;;;10.10;;
71080;SDS011;58740;50.672;18.690;2023-01-25T05:55:22;26.00;;;10.80;;
71080;SDS011;58740;50.672;18.690;2023-01-25T05:57:50;23.30;;;11.30;;
71080;SDS011;58740;50.672;18.690;2023-01-25T06:00:18;29.50;;;11.80;;
71080;SDS011;58740;50.672;18.690;2023-01-25T06:02:46;26.70;;;12.10;;
71080;SDS011;58740;50.672;18.690;2023-01-25T06:05:14;27.40;;;12.10;;
71080;SDS011;58740;50.672;18.690;2023-01-25T06:07:42;23.80;;;11.00;;
71080;SDS011;58740;50.672;18.690;2023-01-25T06:10:10;19.90;;;10.30;;
71080;SDS011;58740;50.672;18.690;2023-01-25T06:12:38;20.90;;;10.60;;
71080;SDS011;58740;50.672;18.690;2023-01-25T06:15:07;20.80;;;9.90;;
71080;SDS011;58740;50.672;18.690;2023-01-25T06:17:35;18.10;;;8.80;;
71080;SDS011;58740;50.672;18.690;2023-01-25T06:20:04;13.60;;;6.70;;
71080;SDS011;58740;50.672;18.690;2023-01-25T06:22:32;12.70;;;5.60;;
71080;SDS011;58740;50.672;18.690;2023-01-25T06:25:00;12.30;;;5.90;;
71080;SDS011;58740;50.672;18.690;2023-01-25T06:27:27;16.80;;;7.00;;
71080;SDS011;58740;50.672;18.690;2023-01-25T06:29:55;24.50;;;10.80;;
71080;SDS011;58740;50.672;18.690;2023-01-25T06:32:23;23.70;;;9.90;;
71080;SDS011;58740;50.672;18.690;2023-01-25T06:34:52;19.20;;;9.50;;
71080;SDS011;58740;50.672;18.690;2023-01-25T06:37:20;16.60;;;7.70;;
71080;SDS011;58740;50.672;18.690;2023-01-25T06:39:49;16.90;;;8.40;;
71080;SDS011;58740;50.672;18.690;2023-01-25T06:42:17;18.20;;;8.40;;
71080;SDS011;58740;50.672;18.690;2023-01-25T06:44:45;13.40;;;7.20;;
71080;SDS011;58740;50.672;18.690;2023-01-25T06:47:12;18.30;;;8.30;;
71080;SDS011;58740;50.672;18.690;2023-01-25T06:49:40;18.60;;;7.70;;
71080;SDS011;58740;50.672;18.690;2023-01-25T06:52:08;14.30;;;7.70;;
71080;SDS011;58740;50.672;18.690;2023-01-25T06:54:36;19.10;;;8.30;;
71080;SDS011;58740;50.672;18.690;2023-01-25T06:57:03;16.80;;;8.20;;
71080;SDS011;58740;50.672;18.690;2023-01-25T06:59:31;16.90;;;8.80;;
71080;SDS011;58740;50.672;18.690;2023-01-25T07:01:59;18.50;;;9.90;;
71080;SDS011;58740;50.672;18.690;2023-01-25T07:04:27;27.70;;;13.30;;
71080;SDS011;58740;50.672;18.690;2023-01-25T07:06:54;40.80;;;21.50;;
71080;SDS011;58740;50.672;18.690;2023-01-25T07:09:22;48.80;;;24.20;;
71080;SDS011;58740;50.672;18.690;2023-01-25T07:11:50;45.90;;;23.00;;
71080;SDS011;58740;50.672;18.690;2023-01-25T07:14:18;31.50;;;15.60;;
71080;SDS011;58740;50.672;18.690;2023-01-25T07:16:46;22.90;;;11.70;;
71080;SDS011;58740;50.672;18.690;2023-01-25T07:19:14;15.90;;;7.60;;
71080;SDS011;58740;50.672;18.690;2023-01-25T07:21:42;26.60;;;11.60;;
71080;SDS011;58740;50.672;18.690;2023-01-25T07:24:12;18.30;;;8.40;;
71080;SDS011;58740;50.672;18.690;2023-01-25T07:26:42;18.80;;;8.30;;
71080;SDS011;58740;50.672;18.690;2023-01-25T07:29:13;23.70;;;10.70;;
71080;SDS011;58740;50.672;18.690;2023-01-25T07:31:49;26.90;;;11.80;;
71080;SDS011;58740;50.672;18.690;2023-01-25T07:34:17;28.70;;;12.40;;
71080;SDS011;58740;50.672;18.690;2023-01-25T07:36:45;25.80;;;11.70;;
71080;SDS011;58740;50.672;18.690;2023-01-25T07:39:13;21.90;;;10.00;;
71080;SDS011;58740;50.672;18.690;2023-01-25T07:41:41;20.00;;;9.70;;
71080;SDS011;58740;50.672;18.690;2023-01-25T07:44:09;22.50;;;10.80;;
71080;SDS011;58740;50.672;18.690;2023-01-25T07:46:36;27.60;;;11.20;;
71080;SDS011;58740;50.672;18.690;2023-01-25T07:49:04;23.00;;;10.80;;
71080;SDS011;58740;50.672;18.690;2023-01-25T07:51:33;28.70;;;12.90;;
71080;SDS011;58740;50.672;18.690;2023-01-25T07:54:03;25.20;;;13.30;;
71080;SDS011;58740;50.672;18.690;2023-01-25T07:56:35;27.00;;;11.60;;
71080;SDS011;58740;50.672;18.690;2023-01-25T07:59:05;20.60;;;10.50;;
71080;SDS011;58740;50.672;18.690;2023-01-25T08:01:37;24.80;;;11.90;;
71080;SDS011;58740;50.672;18.690;2023-01-25T08:04:06;28.20;;;13.70;;
71080;SDS011;58740;50.672;18.690;2023-01-25T08:06:36;23.30;;;12.20;;
71080;SDS011;58740;50.672;18.690;2023-01-25T08:09:12;19.90;;;11.70;;
71080;SDS011;58740;50.672;18.690;2023-01-25T08:11:44;19.10;;;9.90;;
71080;SDS011;58740;50.672;18.690;2023-01-25T08:14:12;24.80;;;10.10;;
71080;SDS011;58740;50.672;18.690;2023-01-25T08:16:40;18.30;;;9.20;;
71080;SDS011;58740;50.672;18.690;2023-01-25T08:19:08;22.40;;;10.10;;
71080;SDS011;58740;50.672;18.690;2023-01-25T08:21:37;23.20;;;11.80;;
71080;SDS011;58740;50.672;18.690;2023-01-25T08:24:06;24.90;;;12.30;;
71080;SDS011;58740;50.672;18.690;2023-01-25T08:26:36;24.00;;;11.70;;
71080;SDS011;58740;50.672;18.690;2023-01-25T08:29:05;25.30;;;11.60;;
71080;SDS011;58740;50.672;18.690;2023-01-25T08:31:34;24.60;;;13.20;;
71080;SDS011;58740;50.672;18.690;2023-01-25T08:34:02;31.50;;;16.00;;
71080;SDS011;58740;50.672;18.690;2023-01-25T08:36:30;30.10;;;14.20;;
71080;SDS011;58740;50.672;18.690;2023-01-25T08:39:01;24.20;;;11.40;;
71080;SDS011;58740;50.672;18.690;2023-01-25T08:41:33;22.10;;;10.50;;
71080;SDS011;58740;50.672;18.690;2023-01-25T08:44:02;20.60;;;9.40;;
71080;SDS011;58740;50.672;18.690;2023-01-25T08:46:32;21.30;;;10.50;;
71080;SDS011;58740;50.672;18.690;2023-01-25T08:49:01;20.80;;;10.80;;
71080;SDS011;58740;50.672;18.690;2023-01-25T08:51:30;23.40;;;10.40;;
71080;SDS011;58740;50.672;18.690;2023-01-25T08:54:04;19.70;;;10.20;;
71080;SDS011;58740;50.672;18.690;2023-01-25T08:56:36;22.70;;;10.10;;
71080;SDS011;58740;50.672;18.690;2023-01-25T08:59:05;22.90;;;10.10;;
71080;SDS011;58740;50.672;18.690;2023-01-25T09:01:34;23.00;;;11.80;;
71080;SDS011;58740;50.672;18.690;2023-01-25T09:04:02;26.10;;;12.50;;
71080;SDS011;58740;50.672;18.690;2023-01-25T09:06:30;23.20;;;11.80;;
71080;SDS011;58740;50.672;18.690;2023-01-25T09:08:59;31.00;;;13.00;;
71080;SDS011;58740;50.672;18.690;2023-01-25T09:11:27;26.70;;;13.10;;
71080;SDS011;58740;50.672;18.690;2023-01-25T09:13:55;33.00;;;13.00;;
71080;SDS011;58740;50.672;18.690;2023-01-25T09:16:23;17.30;;;8.10;;
71080;SDS011;58740;50.672;18.690;2023-01-25T09:18:57;16.20;;;7.90;;
71080;SDS011;58740;50.672;18.690;2023-01-25T09:21:28;16.70;;;8.40;;
71080;SDS011;58740;50.672;18.690;2023-01-25T09:23:56;21.10;;;9.30;;
71080;SDS011;58740;50.672;18.690;2023-01-25T09:26:40;22.00;;;7.10;;
71080;SDS011;58740;50.672;18.690;2023-01-25T09:29:16;34.50;;;13.40;;
71080;SDS011;58740;50.672;18.690;2023-01-25T09:31:44;21.50;;;9.70;;
71080;SDS011;58740;50.672;18.690;2023-01-25T09:34:14;19.30;;;8.30;;
71080;SDS011;58740;50.672;18.690;2023-01-25T09:36:42;15.70;;;7.20;;
71080;SDS011;58740;50.672;18.690;2023-01-25T09:39:10;52.80;;;22.70;;
71080;SDS011;58740;50.672;18.690;2023-01-25T09:45:04;15.70;;;6.60;;
71080;SDS011;58740;50.672;18.690;2023-01-25T09:47:50;16.30;;;8.00;;
71080;SDS011;58740;50.672;18.690;2023-01-25T09:53:52;19.00;;;9.10;;
71080;SDS011;58740;50.672;18.690;2023-01-25T09:56:24;16.30;;;7.50;;
71080;SDS011;58740;50.672;18.690;2023-01-25T09:58:59;14.30;;;7.30;;
71080;SDS011;58740;50.672;18.690;2023-01-25T10:01:45;15.10;;;7.10;;
71080;SDS011;58740;50.672;18.690;2023-01-25T10:04:18;15.20;;;6.60;;
71080;SDS011;58740;50.672;18.690;2023-01-25T10:06:52;12.10;;;5.20;;
71080;SDS011;58740;50.672;18.690;2023-01-25T10:12:20;15.50;;;6.50;;
71080;SDS011;58740;50.672;18.690;2023-01-25T10:14:51;12.90;;;6.50;;
71080;SDS011;58740;50.672;18.690;2023-01-25T10:17:31;17.60;;;7.70;;
71080;SDS011;58740;50.672;18.690;2023-01-25T10:26:25;16.80;;;7.20;;
71080;SDS011;58740;50.672;18.690;2023-01-25T10:29:16;14.20;;;7.90;;
71080;SDS011;58740;50.672;18.690;2023-01-25T10:31:51;15.10;;;7.30;;
71080;SDS011;58740;50.672;18.690;2023-01-25T10:34:24;12.40;;;5.60;;
71080;SDS011;58740;50.672;18.690;2023-01-25T10:37:01;12.50;;;5.00;;
71080;SDS011;58740;50.672;18.690;2023-01-25T10:39:31;13.80;;;5.30;;
71080;SDS011;58740;50.672;18.690;2023-01-25T10:42:08;23.60;;;10.40;;
71080;SDS011;58740;50.672;18.690;2023-01-25T10:44:40;18.20;;;8.40;;
71080;SDS011;58740;50.672;18.690;2023-01-25T10:47:16;13.80;;;6.10;;
71080;SDS011;58740;50.672;18.690;2023-01-25T10:49:52;24.60;;;11.40;;
71080;SDS011;58740;50.672;18.690;2023-01-25T10:52:27;17.40;;;8.60;;
71080;SDS011;58740;50.672;18.690;2023-01-25T10:55:20;13.60;;;6.50;;
71080;SDS011;58740;50.672;18.690;2023-01-25T10:57:54;12.90;;;6.20;;
71080;SDS011;58740;50.672;18.690;2023-01-25T11:00:27;13.20;;;6.70;;
71080;SDS011;58740;50.672;18.690;2023-01-25T11:03:02;13.40;;;6.30;;
71080;SDS011;58740;50.672;18.690;2023-01-25T11:05:33;13.40;;;5.70;;
71080;SDS011;58740;50.672;18.690;2023-01-25T11:08:31;16.90;;;7.90;;
71080;SDS011;58740;50.672;18.690;2023-01-25T11:11:13;19.00;;;8.00;;
71080;SDS011;58740;50.672;18.690;2023-01-25T11:13:50;17.80;;;7.30;;
71080;SDS011;58740;50.672;18.690;2023-01-25T11:16:28;19.30;;;8.20;;
71080;SDS011;58740;50.672;18.690;2023-01-25T11:19:04;19.10;;;7.50;;
71080;SDS011;58740;50.672;18.690;2023-01-25T11:21:53;15.90;;;6.70;;
71080;SDS011;58740;50.672;18.690;2023-01-25T11:24:29;14.50;;;7.00;;
71080;SDS011;58740;50.672;18.690;2023-01-25T11:27:26;14.80;;;6.10;;
71080;SDS011;58740;50.672;18.690;2023-01-25T11:32:32;13.20;;;6.30;;
71080;SDS011;58740;50.672;18.690;2023-01-25T11:35:00;17.00;;;6.70;;
71080;SDS011;58740;50.672;18.690;2023-01-25T11:40:33;14.10;;;6.10;;
71080;SDS011;58740;50.672;18.690;2023-01-25T11:49:10;16.00;;;8.00;;
71080;SDS011;58740;50.672;18.690;2023-01-25T12:01:26;13.10;;;6.10;;
71080;SDS011;58740;50.672;18.690;2023-01-25T12:07:22;30.60;;;13.70;;
71080;SDS011;58740;50.672;18.690;2023-01-25T12:10:33;17.40;;;8.30;;
71080;SDS011;58740;50.672;18.690;2023-01-25T12:13:39;18.20;;;7.50;;
71080;SDS011;58740;50.672;18.690;2023-01-25T12:23:22;21.50;;;8.80;;
71080;SDS011;58740;50.672;18.690;2023-01-25T12:26:28;21.90;;;8.70;;
71080;SDS011;58740;50.672;18.690;2023-01-25T12:34:43;22.50;;;10.30;;
71080;SDS011;58740;50.672;18.690;2023-01-25T12:37:22;18.90;;;8.50;;
71080;SDS011;58740;50.672;18.690;2023-01-25T12:40:03;18.40;;;8.20;;
71080;SDS011;58740;50.672;18.690;2023-01-25T12:42:44;15.90;;;7.40;;
71080;SDS011;58740;50.672;18.690;2023-01-25T12:45:37;17.60;;;7.80;;
71080;SDS011;58740;50.672;18.690;2023-01-25T12:48:17;19.20;;;9.10;;
71080;SDS011;58740;50.672;18.690;2023-01-25T12:50:55;15.70;;;6.80;;
71080;SDS011;58740;50.672;18.690;2023-01-25T12:53:36;14.80;;;7.50;;
71080;SDS011;58740;50.672;18.690;2023-01-25T12:56:36;13.70;;;6.70;;
71080;SDS011;58740;50.672;18.690;2023-01-25T13:01:50;15.80;;;7.60;;
71080;SDS011;58740;50.672;18.690;2023-01-25T13:07:42;19.00;;;7.70;;
71080;SDS011;58740;50.672;18.690;2023-01-25T13:10:34;25.80;;;11.60;;
71080;SDS011;58740;50.672;18.690;2023-01-25T13:13:27;26.30;;;11.70;;
71080;SDS011;58740;50.672;18.690;2023-01-25T13:15:56;21.90;;;9.20;;
71080;SDS011;58740;50.672;18.690;2023-01-25T13:21:11;18.70;;;6.80;;
71080;SDS011;58740;50.672;18.690;2023-01-25T13:24:20;25.60;;;11.10;;
71080;SDS011;58740;50.672;18.690;2023-01-25T13:32:04;25.60;;;11.90;;
71080;SDS011;58740;50.672;18.690;2023-01-25T13:34:57;21.70;;;10.80;;
71080;SDS011;58740;50.672;18.690;2023-01-25T13:37:40;21.90;;;11.30;;
71080;SDS011;58740;50.672;18.690;2023-01-25T13:40:29;24.70;;;12.40;;
71080;SDS011;58740;50.672;18.690;2023-01-25T13:43:17;27.00;;;13.30;;
71080;SDS011;58740;50.672;18.690;2023-01-25T13:45:49;29.80;;;15.00;;
71080;SDS011;58740;50.672;18.690;2023-01-25T13:48:24;30.20;;;15.70;;
71080;SDS011;58740;50.672;18.690;2023-01-25T13:51:02;30.20;;;14.00;;
71080;SDS011;58740;50.672;18.690;2023-01-25T13:53:32;33.80;;;14.90;;
71080;SDS011;58740;50.672;18.690;2023-01-25T13:56:02;34.70;;;15.20;;
71080;SDS011;58740;50.672;18.690;2023-01-25T13:58:35;34.70;;;16.10;;
71080;SDS011;58740;50.672;18.690;2023-01-25T14:01:19;31.50;;;13.10;;
71080;SDS011;58740;50.672;18.690;2023-01-25T14:03:58;31.50;;;14.30;;
71080;SDS011;58740;50.672;18.690;2023-01-25T14:06:31;25.40;;;12.50;;
71080;SDS011;58740;50.672;18.690;2023-01-25T14:09:05;19.60;;;9.80;;
71080;SDS011;58740;50.672;18.690;2023-01-25T14:11:57;19.10;;;9.50;;
71080;SDS011;58740;50.672;18.690;2023-01-25T14:17:14;21.10;;;10.10;;
71080;SDS011;58740;50.672;18.690;2023-01-25T14:19:47;22.20;;;11.00;;
71080;SDS011;58740;50.672;18.690;2023-01-25T14:22:25;23.50;;;11.00;;
71080;SDS011;58740;50.672;18.690;2023-01-25T14:27:54;19.80;;;10.00;;
71080;SDS011;58740;50.672;18.690;2023-01-25T14:30:33;26.00;;;10.40;;
71080;SDS011;58740;50.672;18.690;2023-01-25T14:35:52;38.20;;;16.10;;
71080;SDS011;58740;50.672;18.690;2023-01-25T14:41:28;30.10;;;12.70;;
71080;SDS011;58740;50.672;18.690;2023-01-25T14:44:05;31.20;;;13.20;;
71080;SDS011;58740;50.672;18.690;2023-01-25T14:46:38;29.50;;;12.20;;
71080;SDS011;58740;50.672;18.690;2023-01-25T14:54:35;41.10;;;18.00;;
71080;SDS011;58740;50.672;18.690;2023-01-25T14:57:30;53.60;;;21.70;;
71080;SDS011;58740;50.672;18.690;2023-01-25T15:00:17;49.30;;;20.80;;
71080;SDS011;58740;50.672;18.690;2023-01-25T15:02:57;27.20;;;14.10;;
71080;SDS011;58740;50.672;18.690;2023-01-25T15:05:33;27.10;;;13.20;;
71080;SDS011;58740;50.672;18.690;2023-01-25T15:10:58;26.00;;;13.00;;
71080;SDS011;58740;50.672;18.690;2023-01-25T15:13:45;27.80;;;14.30;;
71080;SDS011;58740;50.672;18.690;2023-01-25T15:16:13;25.50;;;13.90;;
71080;SDS011;58740;50.672;18.690;2023-01-25T15:18:51;31.80;;;15.70;;
71080;SDS011;58740;50.672;18.690;2023-01-25T15:21:28;34.60;;;15.20;;
71080;SDS011;58740;50.672;18.690;2023-01-25T15:24:00;27.80;;;14.70;;
71080;SDS011;58740;50.672;18.690;2023-01-25T15:26:34;33.40;;;16.10;;
71080;SDS011;58740;50.672;18.690;2023-01-25T15:29:13;30.60;;;15.00;;
71080;SDS011;58740;50.672;18.690;2023-01-25T15:31:42;37.80;;;16.30;;
71080;SDS011;58740;50.672;18.690;2023-01-25T15:34:28;40.90;;;19.50;;
71080;SDS011;58740;50.672;18.690;2023-01-25T15:36:59;46.00;;;20.30;;
71080;SDS011;58740;50.672;18.690;2023-01-25T15:39:27;37.30;;;16.60;;
71080;SDS011;58740;50.672;18.690;2023-01-25T15:41:55;37.00;;;16.30;;
71080;SDS011;58740;50.672;18.690;2023-01-25T15:44:23;35.20;;;16.20;;
71080;SDS011;58740;50.672;18.690;2023-01-25T15:46:51;44.70;;;19.80;;
71080;SDS011;58740;50.672;18.690;2023-01-25T15:49:24;42.20;;;20.00;;
71080;SDS011;58740;50.672;18.690;2023-01-25T15:51:54;28.80;;;14.30;;
71080;SDS011;58740;50.672;18.690;2023-01-25T15:54:22;32.70;;;16.30;;
71080;SDS011;58740;50.672;18.690;2023-01-25T15:56:54;35.00;;;16.60;;
71080;SDS011;58740;50.672;18.690;2023-01-25T15:59:23;31.20;;;16.00;;
71080;SDS011;58740;50.672;18.690;2023-01-25T16:01:53;27.70;;;14.20;;
71080;SDS011;58740;50.672;18.690;2023-01-25T16:04:21;31.50;;;15.50;;
71080;SDS011;58740;50.672;18.690;2023-01-25T16:06:52;32.10;;;15.30;;
71080;SDS011;58740;50.672;18.690;2023-01-25T16:09:25;29.90;;;14.30;;
71080;SDS011;58740;50.672;18.690;2023-01-25T16:11:57;34.20;;;14.10;;
71080;SDS011;58740;50.672;18.690;2023-01-25T16:14:28;48.70;;;22.60;;
71080;SDS011;58740;50.672;18.690;2023-01-25T16:17:00;45.80;;;23.30;;
71080;SDS011;58740;50.672;18.690;2023-01-25T16:19:33;54.10;;;23.60;;